createdAt,value
2023-03-21T00:01:39.152Z,9.40
2023-03-21T00:03:42.846Z,9.30
2023-03-21T00:05:51.705Z,9.30
2023-03-21T00:07:53.551Z,9.30
2023-03-21T00:10:04.815Z,9.30
2023-03-21T00:12:09.852Z,9.20
2023-03-21T00:14:14.678Z,9.10
2023-03-21T00:16:21.425Z,9.10
2023-03-21T00:18:36.772Z,9.00
2023-03-21T00:20:38.679Z,9.00
2023-03-21T00:22:40.864Z,9.00
2023-03-21T00:24:42.534Z,9.10
2023-03-21T00:26:44.423Z,9.10
2023-03-21T00:28:46.180Z,9.10
2023-03-21T00:30:47.935Z,9.10
2023-03-21T00:32:56.491Z,9.20
2023-03-21T00:35:16.485Z,9.20
2023-03-21T00:37:20.308Z,9.10
2023-03-21T00:39:22.229Z,9.20
2023-03-21T00:41:41.097Z,9.20
2023-03-21T00:43:43.485Z,9.20
2023-03-21T00:45:45.877Z,9.20
2023-03-21T00:47:47.795Z,9.20
2023-03-21T00:49:49.691Z,9.30
2023-03-21T00:51:51.835Z,9.20
2023-03-21T00:53:57.591Z,9.20
2023-03-21T00:55:59.203Z,9.20
2023-03-21T00:58:02.421Z,9.20
2023-03-21T01:00:07.463Z,9.20
2023-03-21T01:02:09.378Z,9.20
2023-03-21T01:04:14.705Z,9.20
2023-03-21T01:06:19.459Z,9.20
2023-03-21T01:08:28.043Z,9.20
2023-03-21T01:10:32.695Z,9.20
2023-03-21T01:12:34.307Z,9.20
2023-03-21T01:14:36.481Z,9.10
2023-03-21T01:16:38.414Z,9.10
2023-03-21T01:18:41.706Z,9.10
2023-03-21T01:20:44.217Z,9.10
2023-03-21T01:22:45.959Z,9.20
2023-03-21T01:24:55.206Z,9.10
2023-03-21T01:27:01.647Z,9.10
2023-03-21T01:29:03.853Z,9.10
2023-03-21T01:31:06.130Z,9.10
2023-03-21T01:33:07.800Z,9.10
2023-03-21T01:35:09.548Z,9.20
2023-03-21T01:37:11.199Z,9.20
2023-03-21T01:39:13.006Z,9.20
2023-03-21T01:41:21.953Z,9.20
2023-03-21T01:43:23.662Z,9.20
2023-03-21T01:45:44.295Z,9.20
2023-03-21T01:47:45.942Z,9.10
2023-03-21T01:49:49.897Z,9.20
2023-03-21T01:51:55.079Z,9.20
2023-03-21T01:53:58.473Z,9.10
2023-03-21T01:56:02.893Z,9.10
2023-03-21T01:58:07.091Z,9.10
2023-03-21T02:00:12.730Z,9.00
2023-03-21T02:02:20.729Z,9.00
2023-03-21T02:04:28.143Z,9.00
2023-03-21T02:06:35.352Z,9.10
2023-03-21T02:08:39.831Z,9.00
2023-03-21T02:10:43.231Z,9.00
2023-03-21T02:12:44.960Z,9.00
2023-03-21T02:14:48.046Z,9.00
2023-03-21T02:16:59.336Z,9.00
2023-03-21T02:19:09.449Z,9.00
2023-03-21T02:21:31.453Z,9.00
2023-03-21T02:23:51.834Z,9.10
2023-03-21T02:25:53.519Z,9.00
2023-03-21T02:28:09.613Z,9.00
2023-03-21T02:30:14.890Z,9.10
2023-03-21T02:32:34.727Z,9.10
2023-03-21T02:34:41.615Z,9.10
2023-03-21T02:36:46.391Z,9.10
2023-03-21T02:38:48.194Z,9.00
2023-03-21T02:40:57.309Z,9.00
2023-03-21T02:43:23.088Z,9.00
2023-03-21T02:45:45.598Z,9.00
2023-03-21T02:47:51.959Z,8.90
2023-03-21T02:49:58.938Z,8.90
2023-03-21T02:52:12.153Z,8.90
2023-03-21T02:54:34.986Z,8.90
2023-03-21T02:56:41.436Z,8.80
2023-03-21T02:58:43.153Z,8.80
2023-03-21T03:00:46.116Z,8.80
2023-03-21T03:02:54.560Z,8.90
2023-03-21T03:05:06.455Z,9.00
2023-03-21T03:07:13.245Z,9.00
2023-03-21T03:09:23.349Z,8.90
2023-03-21T03:11:28.871Z,8.90
2023-03-21T03:13:33.274Z,9.00
2023-03-21T03:15:34.979Z,9.00
2023-03-21T03:17:39.559Z,9.00
2023-03-21T03:19:50.613Z,9.00
2023-03-21T03:21:55.458Z,9.00
2023-03-21T03:24:16.740Z,9.00
2023-03-21T03:26:27.187Z,8.90
2023-03-21T03:28:31.963Z,9.00
2023-03-21T03:30:42.228Z,9.00
2023-03-21T03:32:48.234Z,9.10
2023-03-21T03:34:51.593Z,9.00
2023-03-21T03:36:56.509Z,9.00
2023-03-21T03:38:58.700Z,9.00
2023-03-21T03:41:04.423Z,9.00
2023-03-21T03:43:11.580Z,8.90
2023-03-21T03:45:13.245Z,8.90
2023-03-21T03:47:32.355Z,8.90
2023-03-21T03:49:37.669Z,8.90
2023-03-21T03:51:43.453Z,8.90
2023-03-21T03:53:49.620Z,8.90
2023-03-21T03:55:52.324Z,8.80
2023-03-21T03:57:54.904Z,8.80
2023-03-21T03:59:56.577Z,8.80
2023-03-21T04:01:58.192Z,8.80
2023-03-21T04:04:12.272Z,8.80
2023-03-21T04:06:15.328Z,8.80
2023-03-21T04:08:17.308Z,8.80
2023-03-21T04:10:19.744Z,8.80
2023-03-21T04:12:21.569Z,8.80
2023-03-21T04:14:25.564Z,8.80
2023-03-21T04:16:31.997Z,8.80
2023-03-21T04:18:35.024Z,8.80
2023-03-21T04:20:37.507Z,8.80
2023-03-21T04:22:39.460Z,8.80
2023-03-21T04:24:42.463Z,8.80
2023-03-21T04:26:44.197Z,8.80
2023-03-21T04:28:45.860Z,8.80
2023-03-21T04:31:01.207Z,8.70
2023-03-21T04:33:05.385Z,8.60
2023-03-21T04:35:09.751Z,8.60
2023-03-21T04:37:13.418Z,8.60
2023-03-21T04:39:15.400Z,8.60
2023-03-21T04:41:16.970Z,8.60
2023-03-21T04:43:18.625Z,8.60
2023-03-21T04:45:20.366Z,8.50
2023-03-21T04:47:22.030Z,8.50
2023-03-21T04:49:23.625Z,8.40
2023-03-21T04:51:25.318Z,8.40
2023-03-21T04:53:26.922Z,8.50
2023-03-21T04:55:29.435Z,8.50
2023-03-21T04:57:31.105Z,8.40
2023-03-21T04:59:32.748Z,8.30
2023-03-21T05:01:34.345Z,8.20
2023-03-21T05:03:40.233Z,8.20
2023-03-21T05:05:42.004Z,8.10
2023-03-21T05:07:43.607Z,8.10
2023-03-21T05:09:45.558Z,8.10
2023-03-21T05:11:47.228Z,8.10
2023-03-21T05:13:49.155Z,8.10
2023-03-21T05:15:50.759Z,8.10
2023-03-21T05:17:52.360Z,8.10
2023-03-21T05:19:56.364Z,8.10
2023-03-21T05:21:57.995Z,8.00
2023-03-21T05:24:03.487Z,8.00
2023-03-21T05:26:06.626Z,8.00
2023-03-21T05:28:08.437Z,8.00
2023-03-21T05:30:11.722Z,8.00
2023-03-21T05:32:13.315Z,8.10
2023-03-21T05:34:14.985Z,8.10
2023-03-21T05:36:16.599Z,8.10
2023-03-21T05:38:18.266Z,8.10
2023-03-21T05:40:20.025Z,8.20
2023-03-21T05:42:21.774Z,8.20
2023-03-21T05:44:23.444Z,8.30
2023-03-21T05:46:25.102Z,8.30
2023-03-21T05:48:26.760Z,8.30
2023-03-21T05:50:29.464Z,8.40
2023-03-21T05:52:31.174Z,8.40
2023-03-21T05:54:32.769Z,8.50
2023-03-21T05:56:34.486Z,8.50
2023-03-21T06:00:52.389Z,8.50
2023-03-21T06:02:54.072Z,8.50
2023-03-21T06:04:56.630Z,8.60
2023-03-21T06:06:58.447Z,8.80
2023-03-21T06:09:00.830Z,8.90
2023-03-21T06:11:02.667Z,8.90
2023-03-21T06:13:04.767Z,8.80
2023-03-21T06:15:08.717Z,8.80
2023-03-21T06:17:10.355Z,8.80
2023-03-21T06:19:12.202Z,8.90
2023-03-21T06:21:13.844Z,8.90
2023-03-21T06:23:15.841Z,9.00
2023-03-21T06:25:17.513Z,9.10
2023-03-21T06:27:19.144Z,9.20
2023-03-21T06:29:21.006Z,9.20
2023-03-21T06:31:22.852Z,9.20
2023-03-21T06:33:24.844Z,9.20
2023-03-21T06:35:26.521Z,9.30
2023-03-21T06:37:28.251Z,9.40
2023-03-21T06:39:31.175Z,9.30
2023-03-21T06:41:32.799Z,9.30
2023-03-21T06:43:34.622Z,9.30
2023-03-21T06:45:36.549Z,9.40
2023-03-21T06:47:38.644Z,9.40
2023-03-21T06:49:42.820Z,9.40
2023-03-21T06:51:44.418Z,9.40
2023-03-21T06:53:46.634Z,9.40
2023-03-21T06:55:51.681Z,9.30
2023-03-21T06:57:53.665Z,9.30
2023-03-21T06:59:55.318Z,9.30
2023-03-21T07:01:57.154Z,9.30
2023-03-21T07:03:59.531Z,9.30
2023-03-21T07:06:05.392Z,9.30
2023-03-21T07:08:10.206Z,9.30
2023-03-21T07:10:12.359Z,9.30
2023-03-21T07:12:14.046Z,9.30
2023-03-21T07:14:15.692Z,9.30
2023-03-21T07:16:18.022Z,9.30
2023-03-21T07:18:19.869Z,9.30
2023-03-21T07:20:21.568Z,9.30
2023-03-21T07:22:23.219Z,9.40
2023-03-21T07:24:24.952Z,9.40
2023-03-21T07:26:26.664Z,9.40
2023-03-21T07:28:28.355Z,9.50
2023-03-21T07:30:30.299Z,9.40
2023-03-21T07:32:33.735Z,9.40
2023-03-21T07:34:35.423Z,9.50
2023-03-21T07:36:37.661Z,9.50
2023-03-21T07:38:39.663Z,9.50
2023-03-21T07:40:41.316Z,9.60
2023-03-21T07:42:43.041Z,9.60
2023-03-21T07:44:44.896Z,9.60
2023-03-21T07:46:46.577Z,9.60
2023-03-21T07:48:48.179Z,9.70
2023-03-21T07:50:50.356Z,9.70
2023-03-21T07:52:52.014Z,9.80
2023-03-21T07:54:53.613Z,9.90
2023-03-21T07:56:55.947Z,10.00
2023-03-21T07:58:59.064Z,10.10
2023-03-21T08:01:02.171Z,10.10
2023-03-21T08:03:04.143Z,10.00
2023-03-21T08:05:06.109Z,10.10
2023-03-21T08:07:08.065Z,10.20
2023-03-21T08:09:09.954Z,10.30
2023-03-21T08:11:12.033Z,10.40
2023-03-21T08:13:13.768Z,10.40
2023-03-21T08:15:15.716Z,10.50
2023-03-21T08:17:17.519Z,10.50
2023-03-21T08:19:21.646Z,10.60
2023-03-21T08:21:23.366Z,10.70
2023-03-21T08:23:25.887Z,10.80
2023-03-21T08:25:27.616Z,10.80
2023-03-21T08:27:29.294Z,10.80
2023-03-21T08:29:30.937Z,10.70
2023-03-21T08:31:32.618Z,10.70
2023-03-21T08:33:34.248Z,10.70
2023-03-21T08:35:38.365Z,10.80
2023-03-21T08:37:41.873Z,10.90
2023-03-21T08:39:43.654Z,10.90
2023-03-21T08:41:45.478Z,10.90
2023-03-21T08:43:47.181Z,11.00
2023-03-21T08:45:49.472Z,11.10
2023-03-21T08:47:51.384Z,11.10
2023-03-21T08:49:53.179Z,11.10
2023-03-21T08:51:58.144Z,11.20
2023-03-21T08:53:59.964Z,11.30
2023-03-21T08:56:01.650Z,11.40
2023-03-21T08:58:03.731Z,11.40
2023-03-21T09:00:14.968Z,11.50
2023-03-21T09:02:17.209Z,11.60
2023-03-21T09:04:20.569Z,11.70
2023-03-21T09:06:24.708Z,11.70
2023-03-21T09:08:26.669Z,11.90
2023-03-21T09:10:28.283Z,11.90
2023-03-21T09:12:30.197Z,11.90
2023-03-21T09:14:33.033Z,12.00
2023-03-21T09:16:34.934Z,12.10
2023-03-21T09:18:47.404Z,12.20
2023-03-21T09:20:50.401Z,12.40
2023-03-21T09:22:52.281Z,12.70
2023-03-21T09:24:54.149Z,12.60
2023-03-21T09:26:56.098Z,12.70
2023-03-21T09:28:58.750Z,12.90
2023-03-21T09:31:02.613Z,12.80
2023-03-21T09:33:08.894Z,12.80
2023-03-21T09:35:12.777Z,12.80
2023-03-21T09:37:15.456Z,13.10
2023-03-21T09:39:17.331Z,13.20
2023-03-21T09:41:37.932Z,13.20
2023-03-21T09:43:58.653Z,13.50
2023-03-21T09:46:20.705Z,13.70
2023-03-21T09:48:33.545Z,13.70
2023-03-21T09:50:37.741Z,13.90
2023-03-21T09:52:48.135Z,13.80
2023-03-21T09:54:50.076Z,13.90
2023-03-21T09:56:54.665Z,14.00
2023-03-21T09:58:59.333Z,14.10
2023-03-21T10:01:10.366Z,14.20
2023-03-21T10:03:35.036Z,14.40
2023-03-21T10:05:40.433Z,14.60
2023-03-21T10:07:44.617Z,14.70
2023-03-21T10:09:47.290Z,14.90
2023-03-21T10:11:50.377Z,14.90
2023-03-21T10:13:57.180Z,15.10
2023-03-21T10:16:00.981Z,15.30
2023-03-21T10:18:04.860Z,15.20
2023-03-21T10:20:17.867Z,14.90
2023-03-21T10:22:19.514Z,15.00
2023-03-21T10:24:22.238Z,14.90
2023-03-21T10:26:26.491Z,14.40
2023-03-21T10:28:34.490Z,14.50
2023-03-21T10:30:41.174Z,15.10
2023-03-21T10:32:42.966Z,15.40
2023-03-21T10:34:50.678Z,15.40
2023-03-21T10:36:52.448Z,15.50
2023-03-21T10:38:56.193Z,15.70
2023-03-21T10:40:57.908Z,16.00
2023-03-21T10:43:18.282Z,15.90
2023-03-21T10:45:20.629Z,15.80
2023-03-21T10:47:24.689Z,16.00
2023-03-21T10:49:30.129Z,16.10
2023-03-21T10:51:35.723Z,16.20
2023-03-21T10:53:42.004Z,16.40
2023-03-21T10:55:45.052Z,16.50
2023-03-21T10:57:47.415Z,16.60
2023-03-21T10:59:49.031Z,16.70
2023-03-21T11:01:52.181Z,17.00
2023-03-21T11:03:57.179Z,17.20
2023-03-21T11:06:02.691Z,17.50
2023-03-21T11:08:12.151Z,17.60
2023-03-21T11:10:20.060Z,17.00
2023-03-21T11:12:29.691Z,16.20
2023-03-21T11:14:41.834Z,16.00
2023-03-21T11:16:44.076Z,16.70
2023-03-21T11:18:49.595Z,17.10
2023-03-21T11:20:55.936Z,17.50
2023-03-21T11:22:57.625Z,17.90
2023-03-21T11:25:00.370Z,17.60
2023-03-21T11:27:06.040Z,17.60
2023-03-21T11:29:18.387Z,17.40
2023-03-21T11:31:21.454Z,17.60
2023-03-21T11:33:27.046Z,17.30
2023-03-21T11:35:32.348Z,17.50
2023-03-21T11:37:36.785Z,17.60
2023-03-21T11:39:41.024Z,17.00
2023-03-21T11:41:43.057Z,16.70
2023-03-21T11:43:51.234Z,16.60
2023-03-21T11:46:00.704Z,16.80
2023-03-21T11:48:06.008Z,17.10
2023-03-21T11:50:13.443Z,17.20
2023-03-21T11:52:23.377Z,17.30
2023-03-21T11:54:31.824Z,16.90
2023-03-21T11:56:40.273Z,17.00
2023-03-21T11:59:01.556Z,16.80
2023-03-21T12:01:13.090Z,16.70
2023-03-21T12:03:41.456Z,16.70
2023-03-21T12:05:54.470Z,16.90
2023-03-21T12:08:14.493Z,16.80
2023-03-21T12:10:25.477Z,16.70
2023-03-21T12:12:39.214Z,16.70
2023-03-21T12:14:44.036Z,16.80
2023-03-21T12:16:45.900Z,16.50
2023-03-21T12:18:50.593Z,16.40
2023-03-21T12:20:54.425Z,16.50
2023-03-21T12:23:15.327Z,16.60
2023-03-21T12:25:40.333Z,16.50
2023-03-21T12:27:56.996Z,16.60
2023-03-21T12:30:07.895Z,16.70
2023-03-21T12:32:18.891Z,16.50
2023-03-21T12:34:29.876Z,16.50
2023-03-21T12:36:51.718Z,16.60
2023-03-21T12:39:08.513Z,16.70
2023-03-21T12:41:33.544Z,16.70
2023-03-21T12:43:41.757Z,16.80
2023-03-21T12:45:47.633Z,16.70
2023-03-21T12:47:52.822Z,16.80
2023-03-21T12:49:55.372Z,16.80
2023-03-21T12:52:01.336Z,16.80
2023-03-21T12:54:08.851Z,16.70
2023-03-21T12:56:14.219Z,16.80
2023-03-21T12:58:18.922Z,16.90
2023-03-21T13:00:22.978Z,16.90
2023-03-21T13:02:36.608Z,16.90
2023-03-21T13:04:41.756Z,17.10
2023-03-21T13:06:44.429Z,17.10
2023-03-21T13:09:01.731Z,17.00
2023-03-21T13:11:04.361Z,17.10
2023-03-21T13:13:22.339Z,17.10
2023-03-21T13:15:33.217Z,17.10
2023-03-21T13:17:39.031Z,17.10
2023-03-21T13:19:43.823Z,17.40
2023-03-21T13:21:54.572Z,17.50
2023-03-21T13:24:19.544Z,17.80
2023-03-21T13:26:21.464Z,17.90
2023-03-21T13:28:27.907Z,18.40
2023-03-21T13:30:30.374Z,18.50
2023-03-21T13:32:39.661Z,18.40
2023-03-21T13:34:41.452Z,18.50
2023-03-21T13:36:45.477Z,18.40
2023-03-21T13:38:50.291Z,18.30
2023-03-21T13:40:57.169Z,18.10
2023-03-21T13:42:59.746Z,18.10
2023-03-21T13:45:02.397Z,17.90
2023-03-21T13:47:05.487Z,17.70
2023-03-21T13:49:09.864Z,17.40
2023-03-21T13:51:11.847Z,17.30
2023-03-21T13:53:13.573Z,17.40
2023-03-21T13:55:16.832Z,17.40
2023-03-21T13:57:29.331Z,17.40
2023-03-21T13:59:39.196Z,17.30
2023-03-21T14:01:42.288Z,17.30
2023-03-21T14:03:45.465Z,17.40
2023-03-21T14:05:51.291Z,17.40
2023-03-21T14:08:12.342Z,17.40
2023-03-21T14:10:37.126Z,17.30
2023-03-21T14:12:41.188Z,17.10
2023-03-21T14:15:17.326Z,17.10
2023-03-21T14:17:23.371Z,17.20
2023-03-21T14:19:32.078Z,17.30
2023-03-21T14:21:35.467Z,17.30
2023-03-21T14:23:38.702Z,17.30
2023-03-21T14:25:47.519Z,17.40
2023-03-21T14:27:51.245Z,17.50
2023-03-21T14:29:53.547Z,17.50
2023-03-21T14:31:56.377Z,17.50
2023-03-21T14:33:59.412Z,17.50
2023-03-21T14:36:06.863Z,17.20
2023-03-21T14:38:18.849Z,17.30
2023-03-21T14:40:23.393Z,17.30
2023-03-21T14:42:26.552Z,17.40
2023-03-21T14:44:56.687Z,17.40
2023-03-21T14:47:01.574Z,17.60
2023-03-21T14:49:13.674Z,17.80
2023-03-21T14:51:15.935Z,17.80
2023-03-21T14:53:27.081Z,18.00
2023-03-21T14:55:28.745Z,17.90
2023-03-21T14:57:31.789Z,17.80
2023-03-21T14:59:35.766Z,17.80
2023-03-21T15:01:37.517Z,17.70
2023-03-21T15:03:39.744Z,17.70
2023-03-21T15:05:42.135Z,17.60
2023-03-21T15:07:51.969Z,17.60
2023-03-21T15:09:55.146Z,17.60
2023-03-21T15:11:57.923Z,17.70
2023-03-21T15:14:01.393Z,17.60
2023-03-21T15:16:03.544Z,17.50
2023-03-21T15:18:06.423Z,17.40
2023-03-21T15:20:10.162Z,17.50
2023-03-21T15:22:18.172Z,17.60
2023-03-21T15:24:26.426Z,17.90
2023-03-21T15:26:31.671Z,18.20
2023-03-21T15:28:34.764Z,18.20
2023-03-21T15:30:36.488Z,18.50
2023-03-21T15:32:38.287Z,19.20
2023-03-21T15:34:39.977Z,19.30
2023-03-21T15:36:46.293Z,19.40
2023-03-21T15:38:48.940Z,19.30
2023-03-21T15:40:51.105Z,18.80
2023-03-21T15:43:04.244Z,19.50
2023-03-21T15:45:15.573Z,19.20
2023-03-21T15:47:35.368Z,18.00
2023-03-21T15:49:40.655Z,17.80
2023-03-21T15:51:44.683Z,17.90
2023-03-21T15:53:46.884Z,17.70
2023-03-21T15:55:52.229Z,17.90
2023-03-21T15:57:59.936Z,17.20
2023-03-21T16:00:13.681Z,17.20
2023-03-21T16:02:26.567Z,17.30
2023-03-21T16:04:28.394Z,17.30
2023-03-21T16:06:31.254Z,17.30
2023-03-21T16:08:35.813Z,17.20
2023-03-21T16:10:38.307Z,16.60
2023-03-21T16:12:40.274Z,16.50
2023-03-21T16:14:42.623Z,16.40
2023-03-21T16:16:44.844Z,16.00
2023-03-21T16:22:09.416Z,16.10
2023-03-21T16:24:12.511Z,15.90
2023-03-21T16:26:16.507Z,15.90
2023-03-21T16:28:18.353Z,15.90
2023-03-21T16:30:21.204Z,15.70
2023-03-21T16:32:23.814Z,15.60
2023-03-21T16:34:27.126Z,15.50
2023-03-21T16:36:30.296Z,15.50
2023-03-21T16:38:31.957Z,15.30
2023-03-21T16:40:36.045Z,15.30
2023-03-21T16:42:38.840Z,15.10
2023-03-21T16:44:40.652Z,15.10
2023-03-21T16:46:42.541Z,15.00
2023-03-21T16:48:45.661Z,15.00
2023-03-21T16:50:47.793Z,15.00
2023-03-21T16:52:49.524Z,14.90
2023-03-21T16:54:51.098Z,14.90
2023-03-21T16:56:54.152Z,14.90
2023-03-21T16:58:56.409Z,14.80
2023-03-21T17:00:58.154Z,14.80
2023-03-21T17:03:01.684Z,14.70
2023-03-21T17:05:04.934Z,14.60
2023-03-21T17:07:09.719Z,14.60
2023-03-21T17:09:12.897Z,14.60
2023-03-21T17:11:20.057Z,14.50
2023-03-21T17:13:21.675Z,14.50
2023-03-21T17:15:25.280Z,14.40
2023-03-21T17:17:26.985Z,14.40
2023-03-21T17:19:28.782Z,14.40
2023-03-21T17:21:30.777Z,14.40
2023-03-21T17:23:32.440Z,14.30
2023-03-21T17:25:34.600Z,14.30
2023-03-21T17:27:36.374Z,14.20
2023-03-21T17:29:38.214Z,14.10
2023-03-21T17:31:40.123Z,14.00
2023-03-21T17:33:42.128Z,13.90
2023-03-21T17:35:43.925Z,13.90
2023-03-21T17:37:51.283Z,13.90
2023-03-21T17:39:53.015Z,13.80
2023-03-21T17:41:55.046Z,13.80
2023-03-21T17:43:56.858Z,13.80
2023-03-21T17:45:58.728Z,13.80
2023-03-21T17:48:00.428Z,13.80
2023-03-21T17:50:13.720Z,13.70
2023-03-21T17:52:15.468Z,13.70
2023-03-21T17:54:17.132Z,13.60
2023-03-21T17:56:25.765Z,13.50
2023-03-21T17:58:28.337Z,13.50
2023-03-21T18:00:30.674Z,13.50
2023-03-21T18:02:33.174Z,13.50
2023-03-21T18:04:34.906Z,13.40
2023-03-21T18:06:37.445Z,13.40
2023-03-21T18:08:39.127Z,13.40
2023-03-21T18:10:41.675Z,13.50
2023-03-21T18:12:44.008Z,13.40
2023-03-21T18:14:45.674Z,13.30
2023-03-21T18:16:47.971Z,13.30
2023-03-21T18:18:50.916Z,13.30
2023-03-21T18:20:54.498Z,13.20
2023-03-21T18:22:56.608Z,13.20
2023-03-21T18:24:59.516Z,13.30
2023-03-21T18:27:01.495Z,13.20
2023-03-21T18:30:03.745Z,13.20
2023-03-21T18:31:25.540Z,13.20
2023-03-21T18:33:27.593Z,13.20
2023-03-21T18:35:29.998Z,13.20
2023-03-21T18:37:31.798Z,13.10
2023-03-21T18:39:33.698Z,13.10
2023-03-21T18:41:35.510Z,13.20
2023-03-21T18:44:04.787Z,13.10
2023-03-21T18:45:59.380Z,13.10
2023-03-21T18:48:03.985Z,13.00
2023-03-21T18:50:14.142Z,13.10
2023-03-21T18:52:16.872Z,13.00
2023-03-21T18:54:18.616Z,13.00
2023-03-21T18:57:19.632Z,13.10
2023-03-21T18:58:44.759Z,13.00
2023-03-21T19:00:46.826Z,13.00
2023-03-21T19:02:50.806Z,13.00
2023-03-21T19:04:52.909Z,13.00
2023-03-21T19:06:54.890Z,13.00
2023-03-21T19:08:56.740Z,13.00
2023-03-21T19:11:03.357Z,12.90
2023-03-21T19:13:07.967Z,13.00
2023-03-21T19:15:10.004Z,13.00
2023-03-21T19:18:21.830Z,13.00
2023-03-21T19:19:33.958Z,13.00
2023-03-21T19:21:36.704Z,13.00
2023-03-21T19:24:18.068Z,13.00
2023-03-21T19:26:01.122Z,13.00
2023-03-21T19:28:05.548Z,12.90
2023-03-21T19:30:15.596Z,12.90
2023-03-21T19:32:35.810Z,12.80
2023-03-21T19:38:54.980Z,12.80
2023-03-21T19:41:31.514Z,12.80
2023-03-21T19:46:39.673Z,12.70
2023-03-21T19:49:03.010Z,12.60
2023-03-21T19:51:33.830Z,12.70
2023-03-21T19:53:45.936Z,12.90
2023-03-21T19:56:21.860Z,12.80
2023-03-21T20:01:12.975Z,12.80
2023-03-21T20:05:46.686Z,12.60
2023-03-21T20:13:47.039Z,12.40
2023-03-21T20:39:12.431Z,12.20
2023-03-21T20:41:14.050Z,12.20
2023-03-21T20:44:06.438Z,12.20
2023-03-21T20:45:37.335Z,12.20
2023-03-21T20:47:39.126Z,12.20
2023-03-21T20:49:40.845Z,12.10
2023-03-21T20:54:05.019Z,12.20
2023-03-21T20:56:07.020Z,12.10
2023-03-21T20:58:27.206Z,12.10
2023-03-21T21:00:31.883Z,12.10
2023-03-21T21:02:33.563Z,12.10
2023-03-21T21:04:49.732Z,12.10
2023-03-21T21:06:57.197Z,12.10
2023-03-21T21:09:00.150Z,12.00
2023-03-21T21:11:53.420Z,12.00
2023-03-21T21:13:23.568Z,12.00
2023-03-21T21:15:25.319Z,12.00
2023-03-21T21:17:54.565Z,11.90
2023-03-21T21:19:50.049Z,11.90
2023-03-21T21:21:51.637Z,11.90
2023-03-21T21:23:53.363Z,11.90
2023-03-21T21:25:55.211Z,12.00
2023-03-21T21:27:56.930Z,12.00
2023-03-21T21:29:59.331Z,12.00
2023-03-21T21:32:02.525Z,12.00
2023-03-21T21:34:05.773Z,11.90
2023-03-21T21:36:08.263Z,11.90
2023-03-21T21:38:09.972Z,11.80
2023-03-21T21:40:18.245Z,11.80
2023-03-21T21:42:19.912Z,11.80
2023-03-21T21:44:21.759Z,11.80
2023-03-21T21:46:23.435Z,11.70
2023-03-21T21:48:25.179Z,11.70
2023-03-21T21:50:26.860Z,11.70
2023-03-21T21:52:28.845Z,11.70
2023-03-21T21:54:33.935Z,11.60
2023-03-21T21:56:37.834Z,11.60
2023-03-21T21:58:48.662Z,11.70
2023-03-21T22:00:50.388Z,11.70
2023-03-21T22:02:52.696Z,11.60
2023-03-21T22:04:55.403Z,11.60
2023-03-21T22:06:57.067Z,11.60
2023-03-21T22:08:59.013Z,11.50
2023-03-21T22:11:01.134Z,11.50
2023-03-21T22:13:02.819Z,11.50
2023-03-21T22:15:06.820Z,11.50
2023-03-21T22:17:08.655Z,11.60
2023-03-21T22:19:10.437Z,11.60
2023-03-21T22:21:12.069Z,11.60
2023-03-21T22:23:13.892Z,11.50
2023-03-21T22:25:16.010Z,11.50
2023-03-21T22:27:19.564Z,11.60
2023-03-21T22:29:21.193Z,11.50
2023-03-21T22:31:23.501Z,11.40
2023-03-21T22:33:25.112Z,11.40
2023-03-21T22:35:26.756Z,11.30
2023-03-21T22:37:29.129Z,11.30
2023-03-21T22:39:31.108Z,11.20
2023-03-21T22:41:32.747Z,11.10
2023-03-21T22:43:35.302Z,11.10
2023-03-21T22:45:37.120Z,11.10
2023-03-21T22:47:41.838Z,11.00
2023-03-21T22:49:45.309Z,11.00
2023-03-21T22:51:47.048Z,10.90
2023-03-21T22:53:48.688Z,10.90
2023-03-21T22:55:50.405Z,10.90
2023-03-21T22:57:52.142Z,10.80
2023-03-21T22:59:53.931Z,10.80
2023-03-21T23:01:56.658Z,10.70
2023-03-21T23:03:58.350Z,10.70
2023-03-21T23:06:03.771Z,10.70
2023-03-21T23:08:05.798Z,10.70
2023-03-21T23:10:07.935Z,10.60
2023-03-21T23:12:09.623Z,10.50
2023-03-21T23:14:13.601Z,10.50
2023-03-21T23:16:16.787Z,10.50
2023-03-21T23:18:18.610Z,10.50
2023-03-21T23:20:20.324Z,10.50
2023-03-21T23:22:21.950Z,10.50
2023-03-21T23:24:24.066Z,10.40
2023-03-21T23:26:26.105Z,10.40
2023-03-21T23:28:27.837Z,10.20
2023-03-21T23:30:29.483Z,10.20
2023-03-21T23:32:31.595Z,10.10
2023-03-21T23:34:33.190Z,10.00
2023-03-21T23:36:34.874Z,10.00
2023-03-21T23:38:36.556Z,10.00
2023-03-21T23:40:38.817Z,9.90
2023-03-21T23:42:40.628Z,9.80
2023-03-21T23:44:42.295Z,9.80
2023-03-21T23:46:43.899Z,9.70
2023-03-21T23:48:46.362Z,9.70
2023-03-21T23:50:48.131Z,9.70
2023-03-21T23:52:49.817Z,9.70
2023-03-21T23:54:51.866Z,9.60
2023-03-21T23:56:53.467Z,9.50
2023-03-21T23:58:57.026Z,9.50
